sensor_id;sensor_type;location;lat;lon;timestamp;P1;durP1;ratioP1;P2;durP2;ratioP2
54460;SDS011;40371;49.414;11.010;2022-08-19T00:00:25;11.98;;;11.02;;
54460;SDS011;40371;49.414;11.010;2022-08-19T00:02:50;11.77;;;10.73;;
54460;SDS011;40371;49.414;11.010;2022-08-19T00:05:16;12.13;;;11.13;;
54460;SDS011;40371;49.414;11.010;2022-08-19T00:07:43;13.27;;;12.02;;
54460;SDS011;40371;49.414;11.010;2022-08-19T00:10:09;12.20;;;11.10;;
54460;SDS011;40371;49.414;11.010;2022-08-19T00:12:36;12.83;;;11.63;;
54460;SDS011;40371;49.414;11.010;2022-08-19T00:15:04;12.70;;;11.60;;
54460;SDS011;40371;49.414;11.010;2022-08-19T00:17:41;13.33;;;12.13;;
54460;SDS011;40371;49.414;11.010;2022-08-19T00:20:08;12.97;;;11.83;;
54460;SDS011;40371;49.414;11.010;2022-08-19T00:22:37;13.03;;;11.73;;
54460;SDS011;40371;49.414;11.010;2022-08-19T00:25:03;13.00;;;11.90;;
54460;SDS011;40371;49.414;11.010;2022-08-19T00:27:30;13.30;;;11.93;;
54460;SDS011;40371;49.414;11.010;2022-08-19T00:29:56;13.00;;;12.00;;
54460;SDS011;40371;49.414;11.010;2022-08-19T00:32:23;13.87;;;11.87;;
54460;SDS011;40371;49.414;11.010;2022-08-19T00:34:50;13.17;;;12.07;;
54460;SDS011;40371;49.414;11.010;2022-08-19T00:37:17;13.83;;;12.60;;
54460;SDS011;40371;49.414;11.010;2022-08-19T00:39:48;14.50;;;13.03;;
54460;SDS011;40371;49.414;11.010;2022-08-19T00:42:16;13.60;;;12.50;;
54460;SDS011;40371;49.414;11.010;2022-08-19T00:44:42;13.20;;;12.10;;
54460;SDS011;40371;49.414;11.010;2022-08-19T00:47:08;13.93;;;12.63;;
54460;SDS011;40371;49.414;11.010;2022-08-19T00:49:37;13.47;;;12.37;;
54460;SDS011;40371;49.414;11.010;2022-08-19T00:52:16;15.37;;;12.90;;
54460;SDS011;40371;49.414;11.010;2022-08-19T00:54:49;15.17;;;12.17;;
54460;SDS011;40371;49.414;11.010;2022-08-19T00:57:18;14.50;;;12.97;;
54460;SDS011;40371;49.414;11.010;2022-08-19T00:59:54;13.17;;;12.07;;
54460;SDS011;40371;49.414;11.010;2022-08-19T01:02:23;13.37;;;12.27;;
54460;SDS011;40371;49.414;11.010;2022-08-19T01:04:49;13.87;;;12.60;;
54460;SDS011;40371;49.414;11.010;2022-08-19T01:07:15;13.13;;;11.93;;
54460;SDS011;40371;49.414;11.010;2022-08-19T01:09:41;13.70;;;12.47;;
54460;SDS011;40371;49.414;11.010;2022-08-19T01:12:07;13.57;;;12.37;;
54460;SDS011;40371;49.414;11.010;2022-08-19T01:14:33;13.60;;;12.40;;
54460;SDS011;40371;49.414;11.010;2022-08-19T01:17:00;13.77;;;12.57;;
54460;SDS011;40371;49.414;11.010;2022-08-19T01:19:28;14.30;;;13.00;;
54460;SDS011;40371;49.414;11.010;2022-08-19T01:22:01;13.87;;;12.57;;
54460;SDS011;40371;49.414;11.010;2022-08-19T01:24:30;14.53;;;13.20;;
54460;SDS011;40371;49.414;11.010;2022-08-19T01:26:56;13.33;;;12.13;;
54460;SDS011;40371;49.414;11.010;2022-08-19T01:29:22;14.10;;;12.60;;
54460;SDS011;40371;49.414;11.010;2022-08-19T01:31:47;14.67;;;13.47;;
54460;SDS011;40371;49.414;11.010;2022-08-19T01:34:14;14.57;;;13.20;;
54460;SDS011;40371;49.414;11.010;2022-08-19T01:36:41;14.23;;;13.03;;
54460;SDS011;40371;49.414;11.010;2022-08-19T01:39:13;12.87;;;11.77;;
54460;SDS011;40371;49.414;11.010;2022-08-19T01:41:41;13.60;;;12.40;;
54460;SDS011;40371;49.414;11.010;2022-08-19T01:44:07;13.03;;;11.93;;
54460;SDS011;40371;49.414;11.010;2022-08-19T01:46:34;14.53;;;13.33;;
54460;SDS011;40371;49.414;11.010;2022-08-19T01:49:01;15.00;;;13.50;;
54460;SDS011;40371;49.414;11.010;2022-08-19T01:51:29;14.87;;;13.47;;
54460;SDS011;40371;49.414;11.010;2022-08-19T01:53:55;14.33;;;13.13;;
54460;SDS011;40371;49.414;11.010;2022-08-19T01:56:21;13.20;;;12.23;;
54460;SDS011;40371;49.414;11.010;2022-08-19T01:58:49;15.80;;;14.40;;
54460;SDS011;40371;49.414;11.010;2022-08-19T02:01:19;15.13;;;13.57;;
54460;SDS011;40371;49.414;11.010;2022-08-19T02:03:45;14.10;;;12.90;;
54460;SDS011;40371;49.414;11.010;2022-08-19T02:06:10;15.07;;;13.67;;
54460;SDS011;40371;49.414;11.010;2022-08-19T02:08:38;15.90;;;14.60;;
54460;SDS011;40371;49.414;11.010;2022-08-19T02:11:05;15.53;;;14.07;;
54460;SDS011;40371;49.414;11.010;2022-08-19T02:13:31;15.63;;;14.03;;
54460;SDS011;40371;49.414;11.010;2022-08-19T02:15:57;17.17;;;15.53;;
54460;SDS011;40371;49.414;11.010;2022-08-19T02:18:23;16.53;;;14.87;;
54460;SDS011;40371;49.414;11.010;2022-08-19T02:20:49;16.20;;;14.80;;
54460;SDS011;40371;49.414;11.010;2022-08-19T02:23:15;16.37;;;14.90;;
54460;SDS011;40371;49.414;11.010;2022-08-19T02:25:42;16.17;;;14.87;;
54460;SDS011;40371;49.414;11.010;2022-08-19T02:28:09;16.43;;;14.93;;
54460;SDS011;40371;49.414;11.010;2022-08-19T02:30:36;17.40;;;15.80;;
54460;SDS011;40371;49.414;11.010;2022-08-19T02:33:03;17.00;;;15.60;;
54460;SDS011;40371;49.414;11.010;2022-08-19T02:35:29;16.20;;;14.83;;
54460;SDS011;40371;49.414;11.010;2022-08-19T02:37:55;16.73;;;15.27;;
54460;SDS011;40371;49.414;11.010;2022-08-19T02:40:39;17.47;;;15.87;;
54460;SDS011;40371;49.414;11.010;2022-08-19T02:43:07;17.73;;;16.03;;
54460;SDS011;40371;49.414;11.010;2022-08-19T02:45:37;18.27;;;16.57;;
54460;SDS011;40371;49.414;11.010;2022-08-19T02:48:04;17.37;;;15.73;;
54460;SDS011;40371;49.414;11.010;2022-08-19T02:50:30;16.40;;;15.00;;
54460;SDS011;40371;49.414;11.010;2022-08-19T02:52:56;17.27;;;15.87;;
54460;SDS011;40371;49.414;11.010;2022-08-19T02:55:22;17.43;;;15.83;;
54460;SDS011;40371;49.414;11.010;2022-08-19T02:57:48;17.37;;;15.67;;
54460;SDS011;40371;49.414;11.010;2022-08-19T03:00:14;17.47;;;15.77;;
54460;SDS011;40371;49.414;11.010;2022-08-19T03:02:40;18.23;;;16.43;;
54460;SDS011;40371;49.414;11.010;2022-08-19T03:05:07;16.67;;;15.07;;
54460;SDS011;40371;49.414;11.010;2022-08-19T03:07:34;18.50;;;16.60;;
54460;SDS011;40371;49.414;11.010;2022-08-19T03:10:00;17.67;;;16.07;;
54460;SDS011;40371;49.414;11.010;2022-08-19T03:12:25;17.67;;;16.10;;
54460;SDS011;40371;49.414;11.010;2022-08-19T03:14:51;17.70;;;16.10;;
54460;SDS011;40371;49.414;11.010;2022-08-19T03:17:17;18.63;;;16.83;;
54460;SDS011;40371;49.414;11.010;2022-08-19T03:19:43;17.67;;;16.10;;
54460;SDS011;40371;49.414;11.010;2022-08-19T03:22:09;18.50;;;16.70;;
54460;SDS011;40371;49.414;11.010;2022-08-19T03:24:34;18.37;;;16.67;;
54460;SDS011;40371;49.414;11.010;2022-08-19T03:27:00;18.20;;;16.43;;
54460;SDS011;40371;49.414;11.010;2022-08-19T03:29:28;18.03;;;16.33;;
54460;SDS011;40371;49.414;11.010;2022-08-19T03:31:57;18.65;;;17.02;;
54460;SDS011;40371;49.414;11.010;2022-08-19T03:34:26;17.60;;;16.00;;
54460;SDS011;40371;49.414;11.010;2022-08-19T03:36:54;17.70;;;16.00;;
54460;SDS011;40371;49.414;11.010;2022-08-19T03:39:20;16.90;;;15.37;;
54460;SDS011;40371;49.414;11.010;2022-08-19T03:41:47;17.83;;;16.15;;
54460;SDS011;40371;49.414;11.010;2022-08-19T03:44:16;17.27;;;15.75;;
54460;SDS011;40371;49.414;11.010;2022-08-19T03:46:46;18.83;;;17.03;;
54460;SDS011;40371;49.414;11.010;2022-08-19T03:49:13;18.88;;;17.13;;
54460;SDS011;40371;49.414;11.010;2022-08-19T03:51:39;19.60;;;17.90;;
54460;SDS011;40371;49.414;11.010;2022-08-19T03:54:07;19.17;;;17.45;;
54460;SDS011;40371;49.414;11.010;2022-08-19T03:56:34;18.37;;;16.67;;
54460;SDS011;40371;49.414;11.010;2022-08-19T03:59:03;19.90;;;18.10;;
54460;SDS011;40371;49.414;11.010;2022-08-19T04:01:31;19.63;;;17.83;;
54460;SDS011;40371;49.414;11.010;2022-08-19T04:03:57;19.87;;;18.07;;
54460;SDS011;40371;49.414;11.010;2022-08-19T04:06:27;19.27;;;17.27;;
54460;SDS011;40371;49.414;11.010;2022-08-19T04:08:55;18.60;;;16.80;;
54460;SDS011;40371;49.414;11.010;2022-08-19T04:11:24;20.43;;;18.63;;
54460;SDS011;40371;49.414;11.010;2022-08-19T04:13:52;19.17;;;17.20;;
54460;SDS011;40371;49.414;11.010;2022-08-19T04:16:20;18.73;;;16.97;;
54460;SDS011;40371;49.414;11.010;2022-08-19T04:18:47;19.03;;;17.10;;
54460;SDS011;40371;49.414;11.010;2022-08-19T04:21:18;18.77;;;17.10;;
54460;SDS011;40371;49.414;11.010;2022-08-19T04:23:49;18.13;;;16.47;;
54460;SDS011;40371;49.414;11.010;2022-08-19T04:26:20;20.40;;;16.93;;
54460;SDS011;40371;49.414;11.010;2022-08-19T04:28:48;18.17;;;16.47;;
54460;SDS011;40371;49.414;11.010;2022-08-19T04:31:24;17.50;;;15.73;;
54460;SDS011;40371;49.414;11.010;2022-08-19T04:33:55;18.33;;;16.63;;
54460;SDS011;40371;49.414;11.010;2022-08-19T04:36:24;17.57;;;15.87;;
54460;SDS011;40371;49.414;11.010;2022-08-19T04:38:55;17.50;;;15.97;;
54460;SDS011;40371;49.414;11.010;2022-08-19T04:41:22;17.13;;;15.63;;
54460;SDS011;40371;49.414;11.010;2022-08-19T04:44:06;17.60;;;15.80;;
54460;SDS011;40371;49.414;11.010;2022-08-19T04:46:32;18.20;;;16.37;;
54460;SDS011;40371;49.414;11.010;2022-08-19T04:48:59;18.13;;;16.47;;
54460;SDS011;40371;49.414;11.010;2022-08-19T04:51:26;18.30;;;16.70;;
54460;SDS011;40371;49.414;11.010;2022-08-19T04:53:52;17.90;;;16.30;;
54460;SDS011;40371;49.414;11.010;2022-08-19T04:56:18;18.60;;;16.67;;
54460;SDS011;40371;49.414;11.010;2022-08-19T04:58:51;18.60;;;16.43;;
54460;SDS011;40371;49.414;11.010;2022-08-19T05:01:19;20.50;;;18.53;;
54460;SDS011;40371;49.414;11.010;2022-08-19T05:03:47;19.63;;;17.70;;
54460;SDS011;40371;49.414;11.010;2022-08-19T05:06:13;19.50;;;17.70;;
54460;SDS011;40371;49.414;11.010;2022-08-19T05:08:40;21.13;;;18.20;;
54460;SDS011;40371;49.414;11.010;2022-08-19T05:11:12;19.83;;;17.90;;
54460;SDS011;40371;49.414;11.010;2022-08-19T05:13:40;19.20;;;17.30;;
54460;SDS011;40371;49.414;11.010;2022-08-19T05:16:08;20.00;;;17.87;;
54460;SDS011;40371;49.414;11.010;2022-08-19T05:18:35;19.97;;;17.97;;
54460;SDS011;40371;49.414;11.010;2022-08-19T05:21:19;19.83;;;18.00;;
54460;SDS011;40371;49.414;11.010;2022-08-19T05:24:04;20.10;;;18.20;;
54460;SDS011;40371;49.414;11.010;2022-08-19T05:26:34;21.97;;;19.67;;
54460;SDS011;40371;49.414;11.010;2022-08-19T05:29:11;21.27;;;19.10;;
54460;SDS011;40371;49.414;11.010;2022-08-19T05:31:38;20.90;;;18.90;;
54460;SDS011;40371;49.414;11.010;2022-08-19T05:34:04;21.70;;;19.37;;
54460;SDS011;40371;49.414;11.010;2022-08-19T05:36:38;20.03;;;18.23;;
54460;SDS011;40371;49.414;11.010;2022-08-19T05:39:09;21.60;;;19.50;;
54460;SDS011;40371;49.414;11.010;2022-08-19T05:41:41;19.73;;;17.93;;
54460;SDS011;40371;49.414;11.010;2022-08-19T05:44:10;19.77;;;17.87;;
54460;SDS011;40371;49.414;11.010;2022-08-19T05:46:36;20.67;;;18.57;;
54460;SDS011;40371;49.414;11.010;2022-08-19T05:49:04;19.73;;;17.97;;
54460;SDS011;40371;49.414;11.010;2022-08-19T05:51:31;21.40;;;19.20;;
54460;SDS011;40371;49.414;11.010;2022-08-19T05:53:59;18.60;;;16.70;;
54460;SDS011;40371;49.414;11.010;2022-08-19T05:56:26;21.07;;;19.07;;
54460;SDS011;40371;49.414;11.010;2022-08-19T05:58:52;19.67;;;17.80;;
54460;SDS011;40371;49.414;11.010;2022-08-19T06:01:19;19.67;;;17.77;;
54460;SDS011;40371;49.414;11.010;2022-08-19T06:03:45;19.43;;;17.47;;
54460;SDS011;40371;49.414;11.010;2022-08-19T06:06:13;18.90;;;17.15;;
54460;SDS011;40371;49.414;11.010;2022-08-19T06:08:40;19.40;;;17.43;;
54460;SDS011;40371;49.414;11.010;2022-08-19T06:11:19;18.80;;;17.03;;
54460;SDS011;40371;49.414;11.010;2022-08-19T06:13:48;22.40;;;18.10;;
54460;SDS011;40371;49.414;11.010;2022-08-19T06:16:17;20.87;;;18.97;;
54460;SDS011;40371;49.414;11.010;2022-08-19T06:18:46;20.00;;;18.13;;
54460;SDS011;40371;49.414;11.010;2022-08-19T06:21:11;20.47;;;18.47;;
54460;SDS011;40371;49.414;11.010;2022-08-19T06:23:37;21.57;;;19.07;;
54460;SDS011;40371;49.414;11.010;2022-08-19T06:26:04;20.10;;;18.30;;
54460;SDS011;40371;49.414;11.010;2022-08-19T06:28:30;20.30;;;18.30;;
54460;SDS011;40371;49.414;11.010;2022-08-19T06:30:57;19.47;;;17.50;;
54460;SDS011;40371;49.414;11.010;2022-08-19T06:33:23;19.17;;;17.13;;
54460;SDS011;40371;49.414;11.010;2022-08-19T06:35:49;17.77;;;16.17;;
54460;SDS011;40371;49.414;11.010;2022-08-19T06:38:14;19.67;;;17.80;;
54460;SDS011;40371;49.414;11.010;2022-08-19T06:40:40;19.37;;;17.37;;
54460;SDS011;40371;49.414;11.010;2022-08-19T06:43:06;17.33;;;15.73;;
54460;SDS011;40371;49.414;11.010;2022-08-19T06:45:31;18.73;;;16.93;;
54460;SDS011;40371;49.414;11.010;2022-08-19T06:47:57;18.52;;;16.92;;
54460;SDS011;40371;49.414;11.010;2022-08-19T06:50:23;17.87;;;16.27;;
54460;SDS011;40371;49.414;11.010;2022-08-19T06:52:49;18.55;;;16.83;;
54460;SDS011;40371;49.414;11.010;2022-08-19T06:55:15;17.60;;;16.00;;
54460;SDS011;40371;49.414;11.010;2022-08-19T06:57:41;17.27;;;15.67;;
54460;SDS011;40371;49.414;11.010;2022-08-19T07:00:08;16.07;;;14.60;;
54460;SDS011;40371;49.414;11.010;2022-08-19T07:02:44;16.83;;;15.23;;
54460;SDS011;40371;49.414;11.010;2022-08-19T07:05:10;15.55;;;14.15;;
54460;SDS011;40371;49.414;11.010;2022-08-19T07:07:35;14.60;;;13.10;;
54460;SDS011;40371;49.414;11.010;2022-08-19T07:10:01;14.15;;;12.82;;
54460;SDS011;40371;49.414;11.010;2022-08-19T07:12:29;14.10;;;12.68;;
54460;SDS011;40371;49.414;11.010;2022-08-19T07:14:58;12.05;;;10.95;;
54460;SDS011;40371;49.414;11.010;2022-08-19T07:17:23;12.52;;;11.32;;
54460;SDS011;40371;49.414;11.010;2022-08-19T07:19:49;11.77;;;10.67;;
54460;SDS011;40371;49.414;11.010;2022-08-19T07:22:15;10.20;;;9.27;;
54460;SDS011;40371;49.414;11.010;2022-08-19T07:24:42;9.97;;;9.17;;
54460;SDS011;40371;49.414;11.010;2022-08-19T07:27:08;11.23;;;10.23;;
54460;SDS011;40371;49.414;11.010;2022-08-19T07:29:35;12.25;;;10.65;;
54460;SDS011;40371;49.414;11.010;2022-08-19T07:32:01;12.10;;;11.00;;
54460;SDS011;40371;49.414;11.010;2022-08-19T07:34:28;12.33;;;11.23;;
54460;SDS011;40371;49.414;11.010;2022-08-19T07:36:55;12.37;;;11.23;;
54460;SDS011;40371;49.414;11.010;2022-08-19T07:39:23;11.47;;;10.43;;
54460;SDS011;40371;49.414;11.010;2022-08-19T07:41:52;11.00;;;10.10;;
54460;SDS011;40371;49.414;11.010;2022-08-19T07:44:18;11.27;;;10.33;;
54460;SDS011;40371;49.414;11.010;2022-08-19T07:46:46;13.00;;;11.83;;
54460;SDS011;40371;49.414;11.010;2022-08-19T07:49:14;13.43;;;12.23;;
54460;SDS011;40371;49.414;11.010;2022-08-19T07:51:45;13.47;;;12.30;;
54460;SDS011;40371;49.414;11.010;2022-08-19T07:54:15;12.83;;;11.63;;
54460;SDS011;40371;49.414;11.010;2022-08-19T07:56:42;13.05;;;12.00;;
54460;SDS011;40371;49.414;11.010;2022-08-19T07:59:08;12.90;;;11.70;;
54460;SDS011;40371;49.414;11.010;2022-08-19T08:01:34;14.00;;;12.70;;
54460;SDS011;40371;49.414;11.010;2022-08-19T08:04:00;24.43;;;22.23;;
54460;SDS011;40371;49.414;11.010;2022-08-19T08:06:45;14.07;;;12.87;;
54460;SDS011;40371;49.414;11.010;2022-08-19T08:09:31;14.27;;;12.97;;
54460;SDS011;40371;49.414;11.010;2022-08-19T08:12:01;14.60;;;13.07;;
54460;SDS011;40371;49.414;11.010;2022-08-19T08:17:01;14.03;;;12.83;;
54460;SDS011;40371;49.414;11.010;2022-08-19T08:19:27;15.93;;;14.33;;
54460;SDS011;40371;49.414;11.010;2022-08-19T08:21:54;14.43;;;13.07;;
54460;SDS011;40371;49.414;11.010;2022-08-19T08:24:22;32.73;;;29.57;;
54460;SDS011;40371;49.414;11.010;2022-08-19T08:26:48;21.80;;;19.80;;
54460;SDS011;40371;49.414;11.010;2022-08-19T08:29:14;18.87;;;17.10;;
54460;SDS011;40371;49.414;11.010;2022-08-19T08:31:41;26.57;;;24.13;;
54460;SDS011;40371;49.414;11.010;2022-08-19T08:34:09;17.23;;;15.73;;
54460;SDS011;40371;49.414;11.010;2022-08-19T08:36:42;17.83;;;16.00;;
54460;SDS011;40371;49.414;11.010;2022-08-19T08:39:11;18.92;;;17.08;;
54460;SDS011;40371;49.414;11.010;2022-08-19T08:47:23;18.48;;;16.70;;
54460;SDS011;40371;49.414;11.010;2022-08-19T08:49:56;20.20;;;18.20;;
54460;SDS011;40371;49.414;11.010;2022-08-19T08:52:30;21.77;;;19.67;;
54460;SDS011;40371;49.414;11.010;2022-08-19T08:55:01;24.23;;;21.63;;
54460;SDS011;40371;49.414;11.010;2022-08-19T08:57:35;36.40;;;33.03;;
54460;SDS011;40371;49.414;11.010;2022-08-19T09:00:38;19.42;;;17.52;;
54460;SDS011;40371;49.414;11.010;2022-08-19T09:03:09;18.92;;;17.20;;
54460;SDS011;40371;49.414;11.010;2022-08-19T09:06:04;26.07;;;23.43;;
54460;SDS011;40371;49.414;11.010;2022-08-19T09:08:52;18.02;;;16.40;;
54460;SDS011;40371;49.414;11.010;2022-08-19T09:11:33;20.03;;;18.13;;
54460;SDS011;40371;49.414;11.010;2022-08-19T09:16:47;17.87;;;16.13;;
54460;SDS011;40371;49.414;11.010;2022-08-19T09:19:14;17.30;;;15.90;;
54460;SDS011;40371;49.414;11.010;2022-08-19T09:21:42;23.07;;;20.87;;
54460;SDS011;40371;49.414;11.010;2022-08-19T09:24:08;21.80;;;19.90;;
54460;SDS011;40371;49.414;11.010;2022-08-19T09:26:33;19.13;;;17.23;;
54460;SDS011;40371;49.414;11.010;2022-08-19T09:29:00;16.27;;;14.77;;
54460;SDS011;40371;49.414;11.010;2022-08-19T09:31:27;15.10;;;13.38;;
54460;SDS011;40371;49.414;11.010;2022-08-19T09:33:54;15.37;;;13.93;;
54460;SDS011;40371;49.414;11.010;2022-08-19T09:36:22;15.57;;;14.07;;
54460;SDS011;40371;49.414;11.010;2022-08-19T09:38:50;16.07;;;14.57;;
54460;SDS011;40371;49.414;11.010;2022-08-19T09:41:21;16.57;;;15.00;;
54460;SDS011;40371;49.414;11.010;2022-08-19T09:43:50;16.77;;;15.13;;
54460;SDS011;40371;49.414;11.010;2022-08-19T09:46:20;16.27;;;14.75;;
54460;SDS011;40371;49.414;11.010;2022-08-19T09:48:47;19.20;;;17.48;;
54460;SDS011;40371;49.414;11.010;2022-08-19T09:51:14;24.05;;;21.83;;
54460;SDS011;40371;49.414;11.010;2022-08-19T09:53:44;17.40;;;15.70;;
54460;SDS011;40371;49.414;11.010;2022-08-19T09:56:12;21.00;;;18.75;;
54460;SDS011;40371;49.414;11.010;2022-08-19T09:58:38;17.80;;;16.17;;
54460;SDS011;40371;49.414;11.010;2022-08-19T10:01:05;18.10;;;16.20;;
54460;SDS011;40371;49.414;11.010;2022-08-19T10:03:32;17.83;;;16.02;;
54460;SDS011;40371;49.414;11.010;2022-08-19T10:06:00;17.73;;;16.02;;
54460;SDS011;40371;49.414;11.010;2022-08-19T10:08:29;17.95;;;16.23;;
54460;SDS011;40371;49.414;11.010;2022-08-19T10:11:00;19.17;;;17.03;;
54460;SDS011;40371;49.414;11.010;2022-08-19T10:13:27;18.55;;;16.33;;
54460;SDS011;40371;49.414;11.010;2022-08-19T10:15:56;18.03;;;16.10;;
54460;SDS011;40371;49.414;11.010;2022-08-19T10:18:28;18.83;;;16.87;;
54460;SDS011;40371;49.414;11.010;2022-08-19T10:21:01;17.77;;;15.98;;
54460;SDS011;40371;49.414;11.010;2022-08-19T10:23:33;20.70;;;18.70;;
54460;SDS011;40371;49.414;11.010;2022-08-19T10:26:01;18.10;;;16.33;;
54460;SDS011;40371;49.414;11.010;2022-08-19T10:28:28;18.20;;;16.58;;
54460;SDS011;40371;49.414;11.010;2022-08-19T10:30:54;21.15;;;19.08;;
54460;SDS011;40371;49.414;11.010;2022-08-19T10:33:19;19.35;;;17.40;;
54460;SDS011;40371;49.414;11.010;2022-08-19T10:35:45;38.83;;;35.00;;
54460;SDS011;40371;49.414;11.010;2022-08-19T10:38:11;17.17;;;15.60;;
54460;SDS011;40371;49.414;11.010;2022-08-19T10:40:37;17.52;;;15.90;;
54460;SDS011;40371;49.414;11.010;2022-08-19T10:43:03;23.45;;;21.08;;
54460;SDS011;40371;49.414;11.010;2022-08-19T10:45:28;17.73;;;16.13;;
54460;SDS011;40371;49.414;11.010;2022-08-19T10:47:54;15.47;;;14.07;;
54460;SDS011;40371;49.414;11.010;2022-08-19T10:50:19;15.83;;;14.17;;
54460;SDS011;40371;49.414;11.010;2022-08-19T10:53:05;15.37;;;13.77;;
54460;SDS011;40371;49.414;11.010;2022-08-19T10:55:35;14.23;;;12.93;;
54460;SDS011;40371;49.414;11.010;2022-08-19T10:58:20;14.50;;;13.20;;
54460;SDS011;40371;49.414;11.010;2022-08-19T11:00:55;14.93;;;13.53;;
54460;SDS011;40371;49.414;11.010;2022-08-19T11:03:22;16.03;;;14.40;;
54460;SDS011;40371;49.414;11.010;2022-08-19T11:06:03;16.23;;;14.73;;
54460;SDS011;40371;49.414;11.010;2022-08-19T11:08:30;14.20;;;12.80;;
54460;SDS011;40371;49.414;11.010;2022-08-19T11:10:58;14.33;;;12.97;;
54460;SDS011;40371;49.414;11.010;2022-08-19T11:13:27;15.13;;;13.80;;
54460;SDS011;40371;49.414;11.010;2022-08-19T11:16:00;14.60;;;13.30;;
54460;SDS011;40371;49.414;11.010;2022-08-19T11:18:28;14.50;;;13.20;;
54460;SDS011;40371;49.414;11.010;2022-08-19T11:20:54;14.57;;;13.27;;
54460;SDS011;40371;49.414;11.010;2022-08-19T11:23:19;16.00;;;13.30;;
54460;SDS011;40371;49.414;11.010;2022-08-19T11:25:45;14.33;;;12.93;;
54460;SDS011;40371;49.414;11.010;2022-08-19T11:28:11;13.70;;;12.40;;
54460;SDS011;40371;49.414;11.010;2022-08-19T11:30:38;13.27;;;11.97;;
54460;SDS011;40371;49.414;11.010;2022-08-19T11:33:04;13.73;;;12.37;;
54460;SDS011;40371;49.414;11.010;2022-08-19T11:35:29;13.70;;;12.60;;
54460;SDS011;40371;49.414;11.010;2022-08-19T11:37:55;15.73;;;14.13;;
54460;SDS011;40371;49.414;11.010;2022-08-19T11:40:24;13.93;;;12.47;;
54460;SDS011;40371;49.414;11.010;2022-08-19T11:42:49;13.20;;;11.97;;
54460;SDS011;40371;49.414;11.010;2022-08-19T11:45:21;14.03;;;12.83;;
54460;SDS011;40371;49.414;11.010;2022-08-19T11:47:51;14.43;;;13.03;;
54460;SDS011;40371;49.414;11.010;2022-08-19T11:50:18;12.90;;;11.80;;
54460;SDS011;40371;49.414;11.010;2022-08-19T11:52:44;14.57;;;13.20;;
54460;SDS011;40371;49.414;11.010;2022-08-19T11:55:11;12.37;;;11.37;;
54460;SDS011;40371;49.414;11.010;2022-08-19T11:57:39;13.73;;;12.60;;
54460;SDS011;40371;49.414;11.010;2022-08-19T12:00:09;13.63;;;12.50;;
54460;SDS011;40371;49.414;11.010;2022-08-19T12:02:37;13.60;;;12.30;;
54460;SDS011;40371;49.414;11.010;2022-08-19T12:05:03;14.67;;;13.23;;
54460;SDS011;40371;49.414;11.010;2022-08-19T12:07:29;13.40;;;12.30;;
54460;SDS011;40371;49.414;11.010;2022-08-19T12:09:58;15.43;;;14.03;;
54460;SDS011;40371;49.414;11.010;2022-08-19T12:12:25;17.57;;;15.90;;
54460;SDS011;40371;49.414;11.010;2022-08-19T12:14:51;16.53;;;15.03;;
54460;SDS011;40371;49.414;11.010;2022-08-19T12:17:30;18.43;;;16.67;;
54460;SDS011;40371;49.414;11.010;2022-08-19T12:19:56;19.30;;;17.50;;
54460;SDS011;40371;49.414;11.010;2022-08-19T12:22:21;19.97;;;18.03;;
54460;SDS011;40371;49.414;11.010;2022-08-19T12:24:47;18.20;;;16.70;;
54460;SDS011;40371;49.414;11.010;2022-08-19T12:27:15;20.00;;;18.23;;
54460;SDS011;40371;49.414;11.010;2022-08-19T12:29:41;19.50;;;17.73;;
54460;SDS011;40371;49.414;11.010;2022-08-19T12:32:07;19.00;;;17.33;;
54460;SDS011;40371;49.414;11.010;2022-08-19T12:34:32;19.47;;;17.67;;
54460;SDS011;40371;49.414;11.010;2022-08-19T12:37:00;18.83;;;17.07;;
54460;SDS011;40371;49.414;11.010;2022-08-19T12:39:27;22.53;;;20.40;;
54460;SDS011;40371;49.414;11.010;2022-08-19T12:41:52;37.03;;;33.53;;
54460;SDS011;40371;49.414;11.010;2022-08-19T12:44:18;28.70;;;26.10;;
54460;SDS011;40371;49.414;11.010;2022-08-19T12:46:44;29.47;;;26.77;;
54460;SDS011;40371;49.414;11.010;2022-08-19T12:49:09;36.43;;;32.67;;
54460;SDS011;40371;49.414;11.010;2022-08-19T12:51:35;24.13;;;21.73;;
54460;SDS011;40371;49.414;11.010;2022-08-19T12:54:01;19.93;;;18.07;;
54460;SDS011;40371;49.414;11.010;2022-08-19T12:56:27;21.13;;;19.03;;
54460;SDS011;40371;49.414;11.010;2022-08-19T12:58:53;23.27;;;20.93;;
54460;SDS011;40371;49.414;11.010;2022-08-19T13:01:19;21.83;;;19.40;;
54460;SDS011;40371;49.414;11.010;2022-08-19T13:03:45;20.20;;;18.20;;
54460;SDS011;40371;49.414;11.010;2022-08-19T13:06:11;21.03;;;19.00;;
54460;SDS011;40371;49.414;11.010;2022-08-19T13:08:38;19.40;;;17.60;;
54460;SDS011;40371;49.414;11.010;2022-08-19T13:11:08;20.17;;;18.27;;
54460;SDS011;40371;49.414;11.010;2022-08-19T13:13:40;19.50;;;17.60;;
54460;SDS011;40371;49.414;11.010;2022-08-19T13:16:07;19.70;;;17.93;;
54460;SDS011;40371;49.414;11.010;2022-08-19T13:18:36;19.60;;;17.77;;
54460;SDS011;40371;49.414;11.010;2022-08-19T13:21:03;21.77;;;19.57;;
54460;SDS011;40371;49.414;11.010;2022-08-19T13:23:29;20.70;;;18.70;;
54460;SDS011;40371;49.414;11.010;2022-08-19T13:25:58;19.83;;;18.13;;
54460;SDS011;40371;49.414;11.010;2022-08-19T13:28:26;20.87;;;19.00;;
54460;SDS011;40371;49.414;11.010;2022-08-19T13:31:12;22.23;;;20.20;;
54460;SDS011;40371;49.414;11.010;2022-08-19T13:33:59;22.07;;;19.97;;
54460;SDS011;40371;49.414;11.010;2022-08-19T13:36:24;21.37;;;19.53;;
54460;SDS011;40371;49.414;11.010;2022-08-19T13:38:50;22.00;;;19.97;;
54460;SDS011;40371;49.414;11.010;2022-08-19T13:41:16;22.40;;;20.40;;
54460;SDS011;40371;49.414;11.010;2022-08-19T13:43:43;23.07;;;20.87;;
54460;SDS011;40371;49.414;11.010;2022-08-19T13:46:09;22.97;;;20.87;;
54460;SDS011;40371;49.414;11.010;2022-08-19T13:48:39;24.33;;;21.97;;
54460;SDS011;40371;49.414;11.010;2022-08-19T13:51:06;23.17;;;21.13;;
54460;SDS011;40371;49.414;11.010;2022-08-19T13:53:34;23.13;;;21.03;;
54460;SDS011;40371;49.414;11.010;2022-08-19T13:56:06;23.50;;;21.40;;
54460;SDS011;40371;49.414;11.010;2022-08-19T13:58:33;24.07;;;21.77;;
54460;SDS011;40371;49.414;11.010;2022-08-19T14:00:59;25.83;;;23.33;;
54460;SDS011;40371;49.414;11.010;2022-08-19T14:03:25;24.90;;;22.60;;
54460;SDS011;40371;49.414;11.010;2022-08-19T14:05:51;24.63;;;22.27;;
54460;SDS011;40371;49.414;11.010;2022-08-19T14:08:17;25.40;;;23.03;;
54460;SDS011;40371;49.414;11.010;2022-08-19T14:10:43;26.13;;;23.73;;
54460;SDS011;40371;49.414;11.010;2022-08-19T14:13:10;24.47;;;22.27;;
54460;SDS011;40371;49.414;11.010;2022-08-19T14:15:39;24.27;;;22.17;;
54460;SDS011;40371;49.414;11.010;2022-08-19T14:18:05;26.00;;;23.57;;
54460;SDS011;40371;49.414;11.010;2022-08-19T14:20:33;24.33;;;22.03;;
54460;SDS011;40371;49.414;11.010;2022-08-19T14:23:02;25.10;;;22.60;;
54460;SDS011;40371;49.414;11.010;2022-08-19T14:25:31;23.77;;;21.43;;